Latest Coastal Weather Observations for Edithburgh

IDS60701

Issued at 3:02 am CST Monday 25 May 2015 (issued every 10 minutes, with the page automatically refreshed every 10 minutes)

About coastal observations | Map of coastal stations | Coastal observations for SA | Marine services | Other Formats
Station Details ID: 022046 Name: EDITHBURGH Lat: -35.11 Lon: 137.74 Height: 6.0 m
Data from the previous 72 hours. | See also: Recent months at Edithburgh
Date/Time
CST
Temp

°C
Wind Pressure Rain
since 9am
mm
Weather Cloud Vis
km
Sea
Height
m
Swell
Dir
 
Speed
knots
Gust
knots
hPa Trend Height
m
Period
s
Dir
25/03:00am 13.2 NNE 2 3 1027.7 - 0.0 - - - - - - -
25/02:30am 12.8 N 2 3 1027.8 - 0.0 - - - - - - -
25/02:00am 13.1 N 3 4 1027.9 - 0.0 - - - - - - -
25/01:30am 12.9 NNE 3 5 1027.9 - 0.0 - - - - - - -
25/01:00am 11.9 N 3 3 1028.2 - 0.0 - - - - - - -
25/12:30am 12.5 NW 2 3 1028.4 - 0.0 - - - - - - -
25/12:00am 12.3 NW 1 3 1028.4 - 0.0 - - - - - - -
 
Date/Time
CST
Temp

°C
Wind Pressure Rain
since 9am
mm
Weather Cloud Vis
km
Sea
Height
m
Swell
Dir
 
Speed
knots
Gust
knots
hPa Trend Height
m
Period
s
Dir
24/11:30pm 12.5 N 2 3 1028.3 - 0.0 - - - - - - -
24/11:00pm 13.3 N 3 4 1027.9 - 0.0 - - - - - - -
24/10:30pm 13.2 N 2 3 1028.3 - 0.0 - - - - - - -
24/10:00pm 14.2 NNE 3 4 1028.2 - 0.0 - - - - - - -
24/09:30pm 14.3 N 4 6 1028.4 - 0.0 - - - - - - -
24/09:00pm 14.3 NE 4 6 1027.9 - 0.0 - - - - - - -
24/08:30pm 14.1 NE 5 6 1027.7 - 0.0 - - - - - - -
24/08:00pm 13.9 ENE 5 6 1027.7 - 0.0 - - - - - - -
24/07:30pm 13.8 ENE 4 5 1027.8 - 0.0 - - - - - - -
24/07:00pm 13.5 ENE 3 4 1028.0 - 0.0 - - - - - - -
24/06:30pm 14.2 NNE 4 5 1028.1 - 0.0 - - - - - - -
24/06:00pm 14.1 NNE 3 4 1028.0 - 0.0 - - - - - - -
24/05:30pm 14.0 NNE 3 5 1027.8 - 0.0 - - - - - - -
24/05:00pm 14.0 NNE 3 4 1027.5 - 0.0 - - - - - - -
24/04:30pm 14.2 NNE 3 4 1027.3 - 0.0 - - - - - - -
24/04:00pm 14.1 NNE 4 5 1027.4 - 0.0 - - - - - - -
24/03:30pm 14.2 NNE 4 5 1027.2 - 0.0 - - - - - - -
24/03:00pm 14.5 NNE 3 5 1027.1 - 0.0 - - - - - - -
24/02:30pm 14.5 NNE 5 8 1027.0 - 0.0 - - - - - - -
24/02:00pm 14.7 NNE 5 7 1027.0 - 0.0 - - - - - - -
24/01:30pm 14.8 NNE 5 8 1027.2 - 0.0 - - - - - - -
24/01:00pm 14.7 NNE 6 10 1027.4 - 0.0 - - - - - - -
24/12:30pm 14.5 NNE 7 11 1027.8 - 0.0 - - - - - - -
24/12:00pm 14.6 NNE 6 9 1028.0 - 0.0 - - - - - - -
24/11:30am 14.5 NNE 8 12 1028.3 - 0.0 - - - - - - -
24/11:00am 14.4 NNE 8 13 1028.3 - 0.0 - - - - - - -
24/10:30am 13.8 NNE 8 12 1028.4 - 0.0 - - - - - - -
24/10:00am 13.9 NNE 7 10 1028.5 - 0.0 - - - - - - -
24/09:30am 13.1 NNE 5 7 1028.2 - 0.0 - - - - - - -
24/09:00am 13.1 NNE 4 7 1028.3 - 0.0 - - - - - - -
24/08:30am 11.1 N 3 5 1028.4 - 0.0 - - - - - - -
24/08:00am 9.8 NW 4 5 1028.1 - 0.0 - - - - - - -
24/07:30am 10.7 N 4 6 1027.9 - 0.0 - - - - - - -
24/07:00am 10.3 N 4 7 1027.6 - 0.0 - - - - - - -
24/06:30am 8.5 N 5 6 1027.7 - 0.0 - - - - - - -
24/06:00am 7.5 N 4 5 1027.5 - 0.0 - - - - - - -
24/05:30am 8.2 NNW 4 5 1027.4 - 0.0 - - - - - - -
24/05:00am 9.3 NNW 5 5 1027.2 - 0.0 - - - - - - -
24/04:30am 12.3 NNE 6 9 1027.0 - 0.0 - - - - - - -
24/04:00am 12.4 NNE 6 9 1026.8 - 0.0 - - - - - - -
24/03:30am 12.5 NE 7 10 1026.9 - 0.0 - - - - - - -
24/03:00am 12.6 NNE 7 10 1027.2 - 0.0 - - - - - - -
24/02:30am 12.7 NNE 7 11 1027.4 - 0.0 - - - - - - -
24/02:00am 12.8 NNE 7 12 1027.5 - 0.0 - - - - - - -
24/01:30am 13.0 NNE 8 12 1027.6 - 0.0 - - - - - - -
24/01:00am 13.0 NE 10 13 1027.5 - 0.0 - - - - - - -
24/12:30am 13.4 NE 9 12 1027.8 - 0.0 - - - - - - -
24/12:00am 13.3 NE 8 11 1028.2 - 0.0 - - - - - - -
 
Date/Time
CST
Temp

°C
Wind Pressure Rain
since 9am
mm
Weather Cloud Vis
km
Sea
Height
m
Swell
Dir
 
Speed
knots
Gust
knots
hPa Trend Height
m
Period
s
Dir
23/11:30pm 13.4 NE 9 12 1028.2 - 0.0 - - - - - - -
23/11:00pm 13.4 NE 7 10 1028.2 - 0.0 - - - - - - -
23/10:30pm 13.7 NE 8 11 1028.3 - 0.0 - - - - - - -
23/10:00pm 12.6 ENE 5 6 1028.5 - 0.0 - - - - - - -
23/09:30pm 12.7 E 5 6 1028.6 - 0.0 - - - - - - -
23/09:00pm 11.8 E 6 7 1028.6 - 0.0 - - - - - - -
23/08:30pm 12.4 E 4 5 1028.9 - 0.0 - - - - - - -
23/08:00pm 12.6 E 4 5 1028.8 - 0.0 - - - - - - -
23/07:30pm 12.8 E 5 6 1028.5 - 0.0 - - - - - - -
23/07:00pm 12.6 E 5 7 1028.3 - 0.0 - - - - - - -
23/06:30pm 12.5 E 6 7 1028.3 - 0.0 - - - - - - -
23/06:00pm 12.0 E 5 7 1028.5 - 0.0 - - - - - - -
23/05:30pm 12.0 E 4 5 1028.5 - 0.0 - - - - - - -
23/05:00pm 12.7 E 5 7 1028.6 - 0.0 - - - - - - -
23/04:30pm 13.3 E 7 9 1028.7 - 0.0 - - - - - - -
23/04:00pm 13.7 ENE 7 10 1028.7 - 0.0 - - - - - - -
23/03:30pm 14.0 ENE 7 9 1028.8 - 0.0 - - - - - - -
23/03:00pm 14.3 ENE 8 9 1028.8 - 0.0 - - - - - - -
23/02:30pm 13.9 NE 7 9 1029.2 - 0.0 - - - - - - -
23/02:00pm 13.9 NE 8 10 1029.4 - 0.0 - - - - - - -
23/01:30pm 13.6 NE 8 10 1029.5 - 0.0 - - - - - - -
23/01:00pm 13.7 NE 9 11 1029.8 - 0.0 - - - - - - -
23/12:30pm 13.8 NE 8 11 1030.2 - 0.0 - - - - - - -
23/12:00pm 14.3 NE 9 11 1030.7 - 0.0 - - - - - - -
23/11:30am 13.9 NE 10 13 1031.2 - 0.0 - - - - - - -
23/11:00am 14.0 NE 10 12 1031.5 - 0.0 - - - - - - -
23/10:30am 13.5 NNE 6 8 1032.0 - 0.0 - - - - - - -
23/10:00am 13.4 NE 6 8 1032.1 - 0.0 - - - - - - -
23/09:30am 13.1 NNE 5 7 1032.1 - 0.0 - - - - - - -
23/09:00am 12.8 NE 6 9 1032.2 - 0.0 - - - - - - -
23/08:30am 12.5 NE 7 10 1032.0 - 0.0 - - - - - - -
23/08:00am 9.5 NNW 2 4 1031.8 - 0.0 - - - - - - -
23/07:30am 8.9 NW 2 3 1031.7 - 0.0 - - - - - - -
23/07:00am 8.2 NW 4 5 1031.4 - 0.0 - - - - - - -
23/06:30am 9.5 NNW 3 4 1031.2 - 0.0 - - - - - - -
23/06:00am 10.4 E 2 3 1031.1 - 0.0 - - - - - - -
23/05:30am 10.3 E 4 5 1031.0 - 0.0 - - - - - - -
23/05:00am 10.6 E 6 7 1030.8 - 0.0 - - - - - - -
23/04:30am 11.3 E 5 7 1030.8 - 0.0 - - - - - - -
23/04:00am 11.4 E 7 9 1030.8 - 0.0 - - - - - - -
23/03:30am 11.4 E 8 10 1031.1 - 0.0 - - - - - - -
23/03:00am 11.3 E 9 12 1031.3 - 0.0 - - - - - - -
23/02:30am 11.3 E 8 11 1031.2 - 0.0 - - - - - - -
23/02:00am 11.4 E 9 12 1031.5 - 0.0 - - - - - - -
23/01:30am 11.4 E 9 11 1031.6 - 0.0 - - - - - - -
23/01:00am 11.4 E 8 9 1031.7 - 0.0 - - - - - - -
23/12:30am 11.5 E 7 9 1031.7 - 0.0 - - - - - - -
23/12:00am 11.5 E 8 9 1031.8 - 0.0 - - - - - - -
 
Date/Time
CST
Temp

°C
Wind Pressure Rain
since 9am
mm
Weather Cloud Vis
km
Sea
Height
m
Swell
Dir
 
Speed
knots
Gust
knots
hPa Trend Height
m
Period
s
Dir
22/11:30pm 11.9 E 7 8 1031.8 - 0.0 - - - - - - -
22/11:00pm 12.2 ESE 8 11 1031.7 - 0.0 - - - - - - -
22/10:30pm 12.5 SE 10 13 1031.7 - 0.0 - - - - - - -
22/10:00pm 13.0 SE 8 12 1031.7 - 0.0 - - - - - - -
22/09:30pm 13.1 ESE 8 13 1031.9 - 0.0 - - - - - - -
22/09:00pm 13.1 SE 7 12 1031.8 - 0.0 - - - - - - -
22/08:30pm 13.2 ESE 8 11 1032.0 - 0.0 - - - - - - -
22/08:00pm 13.2 ESE 9 12 1031.9 - 0.0 - - - - - - -
22/07:30pm 13.2 ESE 8 12 1031.8 - 0.0 - - - - - - -
22/07:00pm 13.5 SE 11 14 1031.8 - 0.0 - - - - - - -
22/06:30pm 13.8 SE 9 12 1031.6 - 0.0 - - - - - - -
22/06:00pm 13.9 SE 10 13 1031.3 - 0.0 - - - - - - -
22/05:30pm 14.1 SE 9 13 1031.1 - 0.0 - - - - - - -
22/05:00pm 14.2 SE 10 13 1031.0 - 0.0 - - - - - - -
22/04:30pm 14.5 SE 11 13 1031.1 - 0.0 - - - - - - -
22/04:00pm 15.2 SSE 8 11 1031.3 - 0.0 - - - - - - -
22/03:30pm 14.9 SSE 7 9 1031.4 - 0.0 - - - - - - -
22/03:00pm 14.9 SSE 7 10 1031.2 - 0.0 - - - - - - -
22/02:30pm 14.9 SE 5 7 1031.3 - 0.0 - - - - - - -
22/02:00pm 14.6 SE 6 8 1031.5 - 0.0 - - - - - - -
22/01:30pm 14.9 SE 6 8 1031.5 - 0.0 - - - - - - -
22/01:00pm 14.4 SE 6 7 1031.8 - 0.0 - - - - - - -
22/12:30pm 14.6 SE 7 9 1032.0 - 0.0 - - - - - - -
22/12:00pm 14.8 SE 5 8 1032.2 - 0.0 - - - - - - -
22/11:30am 14.6 SE 4 7 1032.4 - 0.0 - - - - - - -
22/11:00am 13.6 ESE 6 9 1032.7 - 0.0 - - - - - - -
22/10:30am 14.2 ESE 7 9 1032.8 - 0.0 - - - - - - -
22/10:00am 14.1 ESE 7 9 1032.7 - 0.0 - - - - - - -
22/09:30am 13.5 E 8 10 1032.4 - 0.0 - - - - - - -
22/09:00am 12.9 E 9 12 1032.2 - 0.8 - - - - - - -
22/08:30am 13.3 ESE 7 8 1031.9 - 0.8 - - - - - - -
22/08:00am 12.7 ESE 8 11 1031.6 - 0.8 - - - - - - -
22/07:30am 12.6 ESE 8 10 1031.3 - 0.8 - - - - - - -
22/07:00am 12.4 ESE 9 13 1030.9 - 0.8 - - - - - - -
22/06:30am 12.6 ESE 9 11 1030.4 - 0.8 - - - - - - -
22/06:00am 12.6 SE 8 11 1030.0 - 0.8 - - - - - - -
22/05:30am 12.8 SSE 8 11 1029.9 - 0.8 - - - - - - -
22/05:00am 12.5 SE 8 11 1029.8 - 0.8 - - - - - - -
22/04:30am 12.6 SE 6 12 1029.8 - 0.8 - - - - - - -
22/04:00am 12.1 SE 5 8 1029.6 - 0.8 - - - - - - -
22/03:30am 12.4 SSE 8 13 1029.7 - 0.8 - - - - - - -

Other Formats:

Comma delimited format used in spreadsheet applications
http://www.bom.gov.au/fwo/IDS60701/IDS60701.94809.axf

JavaScript Object Notation format (JSON) in row-major order
http://www.bom.gov.au/fwo/IDS60701/IDS60701.94809.json